createdAt,value
2023-06-18T15:49:24.750Z,5.70
2023-06-18T15:51:54.577Z,5.75
2023-06-18T15:54:21.265Z,6.25
2023-06-18T15:56:47.846Z,5.53
2023-06-18T15:59:14.417Z,5.60
2023-06-18T16:01:41.479Z,5.45
2023-06-18T16:04:18.372Z,5.30
2023-06-18T16:06:45.279Z,5.15
2023-06-18T16:09:12.458Z,5.47
2023-06-18T16:11:39.742Z,5.40
2023-06-18T16:14:06.330Z,5.32
2023-06-18T16:16:39.550Z,5.20
2023-06-18T16:19:08.098Z,5.53
2023-06-18T16:21:36.572Z,5.22
2023-06-18T16:24:03.291Z,5.55
2023-06-18T16:26:30.294Z,5.60
2023-06-18T16:29:04.680Z,5.40
2023-06-18T16:31:31.641Z,5.35
2023-06-18T16:33:58.282Z,5.43
2023-06-18T16:36:28.603Z,5.45
2023-06-18T16:38:55.961Z,4.35
2023-06-18T16:41:31.799Z,5.50
2023-06-18T16:43:58.624Z,4.90
2023-06-18T16:46:25.403Z,6.25
2023-06-18T16:48:53.162Z,6.95
2023-06-18T16:51:22.455Z,6.22
2023-06-18T16:53:52.215Z,5.72
2023-06-18T16:56:18.774Z,5.85
2023-06-18T16:58:46.212Z,5.32
2023-06-18T17:01:12.848Z,5.75
2023-06-18T17:03:39.434Z,5.38
2023-06-18T17:06:16.302Z,5.57
2023-06-18T17:08:42.836Z,5.53
2023-06-18T17:11:09.652Z,4.93
2023-06-18T17:13:37.641Z,5.68
2023-06-18T17:16:05.275Z,5.60
2023-06-18T17:18:32.386Z,5.78
2023-06-18T17:21:03.045Z,5.82
2023-06-18T17:23:29.974Z,5.88
2023-06-18T17:25:56.477Z,5.40
2023-06-18T17:28:24.074Z,5.68
2023-06-18T17:30:50.669Z,5.65
2023-06-18T17:33:17.514Z,5.43
2023-06-18T17:35:44.102Z,6.00
2023-06-18T17:38:11.935Z,5.30
2023-06-18T17:40:38.529Z,5.68
2023-06-18T17:43:09.783Z,6.03
2023-06-18T17:45:42.977Z,5.40
2023-06-18T17:48:09.591Z,5.65
2023-06-18T17:50:37.257Z,6.03
2023-06-18T17:53:03.841Z,5.85
2023-06-18T17:55:32.379Z,5.95
2023-06-18T17:58:01.740Z,5.50
2023-06-18T18:00:28.453Z,6.45
2023-06-18T18:02:55.130Z,6.30
2023-06-18T18:05:21.892Z,6.18
2023-06-18T18:07:48.797Z,5.55
2023-06-18T18:10:15.976Z,6.20
2023-06-18T18:12:42.508Z,6.03
2023-06-18T18:15:09.560Z,6.22
2023-06-18T18:17:36.306Z,5.45
2023-06-18T18:20:02.942Z,5.97
2023-06-18T18:22:29.471Z,6.95
2023-06-18T18:25:03.696Z,6.15
2023-06-18T18:27:30.344Z,6.20
2023-06-18T18:29:57.087Z,6.30
2023-06-18T18:32:26.207Z,6.65
2023-06-18T18:34:52.725Z,6.80
2023-06-18T18:37:25.834Z,6.70
2023-06-18T18:39:52.446Z,6.80
2023-06-18T18:42:19.149Z,6.82
2023-06-18T18:44:48.633Z,6.50
2023-06-18T18:47:15.164Z,7.07
2023-06-18T18:49:41.851Z,6.72
2023-06-18T18:52:08.677Z,8.02
2023-06-18T18:54:35.315Z,7.00
2023-06-18T18:57:01.916Z,6.78
2023-06-18T18:59:28.381Z,7.32
2023-06-18T19:01:54.877Z,7.60
2023-06-18T19:04:21.830Z,6.75
2023-06-18T19:06:49.078Z,7.85
2023-06-18T19:09:16.058Z,6.63
2023-06-18T19:11:42.620Z,6.70
2023-06-18T19:14:09.210Z,7.32
2023-06-18T19:16:36.123Z,6.45
2023-06-18T19:19:03.701Z,6.72
2023-06-18T19:21:30.507Z,7.03
2023-06-18T19:23:57.159Z,7.70
2023-06-18T19:26:23.753Z,7.47
2023-06-18T19:28:50.296Z,7.75
2023-06-18T19:31:16.841Z,7.22
2023-06-18T19:33:43.382Z,7.38
2023-06-18T19:36:10.383Z,6.75
2023-06-18T19:38:37.052Z,6.90
2023-06-18T19:41:05.417Z,6.93
2023-06-18T19:43:32.338Z,7.47
2023-06-18T19:45:58.888Z,7.67
2023-06-18T19:48:25.486Z,7.50
2023-06-18T19:50:52.030Z,7.77
2023-06-18T19:53:18.915Z,7.03
2023-06-18T19:55:45.486Z,7.23
2023-06-18T19:58:12.156Z,7.23
2023-06-18T20:00:39.476Z,7.50
2023-06-18T20:03:07.108Z,7.93
2023-06-18T20:05:34.140Z,8.37
2023-06-18T20:08:01.892Z,7.10
2023-06-18T20:10:28.615Z,7.30
2023-06-18T20:12:55.097Z,7.47
2023-06-18T20:15:21.685Z,7.43
2023-06-18T20:17:48.757Z,7.13
2023-06-18T20:20:18.647Z,7.03
2023-06-18T20:22:45.498Z,7.77
2023-06-18T20:25:12.099Z,7.57
2023-06-18T20:27:38.784Z,7.80
2023-06-18T20:30:07.333Z,7.03
2023-06-18T20:32:34.047Z,7.27
2023-06-18T20:35:01.846Z,8.00
2023-06-18T20:37:28.550Z,7.20
2023-06-18T20:39:55.171Z,7.63
2023-06-18T20:42:24.246Z,6.97
2023-06-18T20:44:52.168Z,8.43
2023-06-18T20:47:19.568Z,7.33
2023-06-18T20:49:46.621Z,7.63
2023-06-18T20:52:14.235Z,7.67
2023-06-18T20:54:42.107Z,7.73
2023-06-18T20:57:09.775Z,7.97
2023-06-18T20:59:36.433Z,7.50
2023-06-18T21:02:03.211Z,7.37
2023-06-18T21:04:29.920Z,7.87
2023-06-18T21:06:56.369Z,7.33
2023-06-18T21:09:22.968Z,7.57
2023-06-18T21:11:49.427Z,7.17
2023-06-18T21:14:16.203Z,7.77
2023-06-18T21:16:42.829Z,8.00
2023-06-18T21:19:09.323Z,7.30
2023-06-18T21:21:35.905Z,7.90
2023-06-18T21:24:02.779Z,7.17
2023-06-18T21:26:29.584Z,7.87
2023-06-18T21:28:56.352Z,8.40
2023-06-18T21:31:22.906Z,8.00
2023-06-18T21:33:49.673Z,7.80
2023-06-18T21:36:16.766Z,7.80
2023-06-18T21:38:43.359Z,7.53
2023-06-18T21:41:10.068Z,7.67
2023-06-18T21:43:36.737Z,8.27
2023-06-18T21:46:03.621Z,8.20
2023-06-18T21:48:30.552Z,7.63
2023-06-18T21:50:59.831Z,8.20
2023-06-18T21:53:26.382Z,7.67
2023-06-18T21:55:53.520Z,7.83
2023-06-18T21:58:22.247Z,7.90
2023-06-18T22:00:49.708Z,7.60
2023-06-18T22:03:16.607Z,8.20
2023-06-18T22:05:43.480Z,8.47
2023-06-18T22:08:23.689Z,8.37
2023-06-18T22:10:51.360Z,8.37
2023-06-18T22:13:18.155Z,7.80
2023-06-18T22:15:44.838Z,9.00
2023-06-18T22:18:11.754Z,8.53
2023-06-18T22:20:38.739Z,9.10
2023-06-18T22:23:05.581Z,8.93
2023-06-18T22:25:32.944Z,8.57
2023-06-18T22:27:59.743Z,8.10
2023-06-18T22:30:26.432Z,8.17
2023-06-18T22:32:53.325Z,7.67
2023-06-18T22:35:19.997Z,8.50
2023-06-18T22:37:46.475Z,8.17
2023-06-18T22:40:13.591Z,8.07
2023-06-18T22:42:40.116Z,7.53
2023-06-18T22:45:07.375Z,8.17
2023-06-18T22:47:34.080Z,8.07
2023-06-18T22:50:00.685Z,8.30
2023-06-18T22:52:27.257Z,8.23
2023-06-18T22:54:53.864Z,7.73
2023-06-18T22:57:20.604Z,8.00
2023-06-18T22:59:47.154Z,8.63
2023-06-18T23:02:13.742Z,7.90
2023-06-18T23:04:40.471Z,8.50
2023-06-18T23:07:07.017Z,8.17
2023-06-18T23:09:33.980Z,8.40
2023-06-18T23:12:01.629Z,8.80
2023-06-18T23:14:28.116Z,7.87
2023-06-18T23:16:54.850Z,8.53
2023-06-18T23:19:21.643Z,8.07
2023-06-18T23:21:48.612Z,8.60
2023-06-18T23:24:15.852Z,7.83
2023-06-18T23:26:42.485Z,7.90
2023-06-18T23:29:13.035Z,8.83
2023-06-18T23:31:40.429Z,8.70
2023-06-18T23:34:10.331Z,8.37
2023-06-18T23:36:37.087Z,8.10
2023-06-18T23:39:05.061Z,8.07
2023-06-18T23:41:31.696Z,8.33
2023-06-18T23:43:58.511Z,8.80
2023-06-18T23:46:25.267Z,8.90
2023-06-18T23:48:51.933Z,8.27
2023-06-18T23:51:18.457Z,8.77
2023-06-18T23:53:44.995Z,8.80
2023-06-18T23:56:11.593Z,9.30
2023-06-18T23:58:38.382Z,8.07
